createdAt,value
2022-09-20T00:01:09.036Z,102403.03
2022-09-20T00:03:37.525Z,102399.38
2022-09-20T00:06:06.065Z,102396.13
2022-09-20T00:08:32.870Z,102391.88
2022-09-20T00:11:07.687Z,102394.91
2022-09-20T00:13:35.176Z,102392.28
2022-09-20T00:16:06.566Z,102390.66
2022-09-20T00:18:33.056Z,102381.50
2022-09-20T00:20:59.537Z,102388.00
2022-09-20T00:23:26.014Z,102393.28
2022-09-20T00:25:57.743Z,102386.19
2022-09-20T00:28:24.945Z,102385.78
2022-09-20T00:30:53.004Z,102380.31
2022-09-20T00:33:20.204Z,102380.72
2022-09-20T00:35:47.247Z,102389.47
2022-09-20T00:38:14.619Z,102388.47
2022-09-20T00:40:42.763Z,102385.81
2022-09-20T00:43:17.068Z,102384.59
2022-09-20T00:45:48.785Z,102384.00
2022-09-20T00:48:25.317Z,102399.19
2022-09-20T00:50:57.863Z,102394.31
2022-09-20T00:53:31.965Z,102400.59
2022-09-20T00:56:03.890Z,102404.25
2022-09-20T00:58:36.181Z,102396.34
2022-09-20T01:01:05.558Z,102399.19
2022-09-20T01:03:36.469Z,102396.13
2022-09-20T01:06:06.959Z,102394.72
2022-09-20T01:08:35.166Z,102395.94
2022-09-20T01:11:02.437Z,102398.59
2022-09-20T01:13:28.917Z,102394.72
2022-09-20T01:15:58.995Z,102387.81
2022-09-20T01:18:27.309Z,102387.63
2022-09-20T01:20:54.729Z,102379.72
2022-09-20T01:23:33.344Z,102382.97
2022-09-20T01:26:12.045Z,102375.88
2022-09-20T01:28:42.290Z,102379.31
2022-09-20T01:31:23.993Z,102383.34
2022-09-20T01:33:56.012Z,102382.53
2022-09-20T01:36:42.982Z,102383.34
2022-09-20T01:39:32.639Z,102383.34
2022-09-20T01:42:05.520Z,102385.97
2022-09-20T01:44:46.293Z,102387.03
2022-09-20T01:47:42.973Z,102387.03
2022-09-20T01:50:25.720Z,102386.78
2022-09-20T01:53:16.574Z,102389.66
2022-09-20T01:56:10.992Z,102398.59
2022-09-20T01:59:07.150Z,102389.06
2022-09-20T02:01:49.970Z,102392.91
2022-09-20T02:04:41.147Z,102387.22
2022-09-20T02:07:13.834Z,102384.59
2022-09-20T02:09:54.769Z,102385.59
2022-09-20T02:12:56.786Z,102381.13
2022-09-20T02:15:32.285Z,102376.47
2022-09-20T02:18:32.900Z,102378.72
2022-09-20T02:21:35.515Z,102382.75
2022-09-20T02:24:28.548Z,102385.97
2022-09-20T02:27:07.099Z,102382.94
2022-09-20T02:29:58.267Z,102372.59
2022-09-20T02:32:43.565Z,102384.97
2022-09-20T02:35:32.479Z,102381.75
2022-09-20T02:38:18.080Z,102389.06
2022-09-20T02:41:06.337Z,102382.56
2022-09-20T02:43:44.756Z,102378.28
2022-09-20T02:46:36.653Z,102386.19
2022-09-20T02:49:17.026Z,102384.16
2022-09-20T02:51:53.734Z,102386.59
2022-09-20T02:54:25.926Z,102380.09
2022-09-20T02:57:00.588Z,102384.97
2022-09-20T02:59:34.110Z,102382.91
2022-09-20T03:02:06.419Z,102389.59
2022-09-20T03:04:52.828Z,102394.50
2022-09-20T03:07:34.161Z,102392.25
2022-09-20T03:10:00.492Z,102391.03
2022-09-20T03:12:54.032Z,102389.41
2022-09-20T03:16:01.573Z,102387.97
2022-09-20T03:18:46.825Z,102388.16
2022-09-20T03:21:29.185Z,102389.78
2022-09-20T03:24:08.985Z,102386.53
2022-09-20T03:27:04.766Z,102393.22
2022-09-20T03:29:31.154Z,102385.31
2022-09-20T03:32:16.564Z,102388.16
2022-09-20T03:34:53.934Z,102389.34
2022-09-20T03:37:25.976Z,102393.00
2022-09-20T03:39:52.713Z,102384.88
2022-09-20T03:42:24.774Z,102388.09
2022-09-20T03:45:15.843Z,102393.38
2022-09-20T03:48:05.636Z,102393.59
2022-09-20T03:50:54.180Z,102386.09
2022-09-20T03:53:32.334Z,102386.47
2022-09-20T03:56:18.757Z,102384.84
2022-09-20T03:59:22.755Z,102392.94
2022-09-20T04:02:12.312Z,102387.25
2022-09-20T04:04:52.750Z,102385.22
2022-09-20T04:07:43.794Z,102399.59
2022-09-20T04:10:30.613Z,102396.75
2022-09-20T04:13:21.868Z,102388.63
2022-09-20T04:16:17.443Z,102393.66
2022-09-20T04:18:56.504Z,102394.88
2022-09-20T04:21:32.552Z,102397.88
2022-09-20T04:24:23.544Z,102402.16
2022-09-20T04:27:00.708Z,102396.88
2022-09-20T04:29:28.039Z,102396.88
2022-09-20T04:32:04.502Z,102394.25
2022-09-20T04:35:04.496Z,102399.75
2022-09-20T04:37:34.235Z,102402.56
2022-09-20T04:40:26.235Z,102403.78
2022-09-20T04:43:01.757Z,102409.03
2022-09-20T04:45:51.380Z,102414.72
2022-09-20T04:48:51.548Z,102413.91
2022-09-20T04:51:36.466Z,102410.28
2022-09-20T04:54:24.957Z,102414.34
2022-09-20T04:57:19.428Z,102411.13
2022-09-20T05:00:08.566Z,102411.94
2022-09-20T05:03:12.921Z,102413.75
2022-09-20T05:06:24.740Z,102412.56
2022-09-20T05:09:07.738Z,102418.25
2022-09-20T05:11:54.185Z,102428.97
2022-09-20T05:14:45.161Z,102427.97
2022-09-20T05:17:44.757Z,102427.78
2022-09-20T05:20:42.653Z,102428.78
2022-09-20T05:23:36.474Z,102431.59
2022-09-20T05:26:35.782Z,102427.13
2022-09-20T05:29:18.627Z,102427.69
2022-09-20T05:32:10.519Z,102431.34
2022-09-20T05:34:52.569Z,102434.78
2022-09-20T05:37:46.967Z,102431.72
2022-09-20T05:40:32.384Z,102433.75
2022-09-20T05:43:30.790Z,102433.75
2022-09-20T05:46:03.141Z,102445.91
2022-09-20T05:48:43.300Z,102439.81
2022-09-20T05:51:29.268Z,102444.28
2022-09-20T05:54:17.420Z,102446.31
2022-09-20T05:56:56.151Z,102449.94
2022-09-20T05:59:56.317Z,102442.25
2022-09-20T06:02:33.865Z,102447.31
2022-09-20T06:05:15.858Z,102448.31
2022-09-20T06:08:03.794Z,102448.31
2022-09-20T06:10:43.485Z,102441.63
2022-09-20T06:13:30.154Z,102445.31
2022-09-20T06:16:02.385Z,102464.78
2022-09-20T06:18:43.261Z,102456.31
2022-09-20T06:21:33.705Z,102455.72
2022-09-20T06:24:01.341Z,102457.59
2022-09-20T06:26:36.860Z,102467.94
2022-09-20T06:29:07.306Z,102470.81
2022-09-20T06:31:33.857Z,102466.56
2022-09-20T06:34:03.249Z,102486.47
2022-09-20T06:36:53.978Z,102488.94
2022-09-20T06:39:48.053Z,102500.09
2022-09-20T06:42:14.500Z,102496.88
2022-09-20T06:44:43.200Z,102498.94
2022-09-20T06:47:15.559Z,102500.59
2022-09-20T06:49:46.737Z,102489.84
2022-09-20T06:52:18.691Z,102491.91
2022-09-20T06:54:46.954Z,102497.34
2022-09-20T06:57:17.617Z,102483.38
2022-09-20T06:59:44.367Z,102484.03
2022-09-20T07:02:10.995Z,102468.81
2022-09-20T07:04:37.849Z,102466.00
2022-09-20T07:07:09.240Z,102467.00
2022-09-20T07:09:36.264Z,102469.22
2022-09-20T07:12:03.121Z,102476.94
2022-09-20T07:14:29.644Z,102471.47
2022-09-20T07:16:56.072Z,102476.91
2022-09-20T07:19:23.358Z,102471.06
2022-09-20T07:21:49.904Z,102473.88
2022-09-20T07:24:16.367Z,102478.53
2022-09-20T07:26:56.222Z,102475.81
2022-09-20T07:29:22.997Z,102485.16
2022-09-20T07:31:50.808Z,102481.06
2022-09-20T07:34:20.166Z,102475.50
2022-09-20T07:36:47.802Z,102478.53
2022-09-20T07:39:14.587Z,102496.63
2022-09-20T07:41:41.082Z,102501.91
2022-09-20T07:44:24.913Z,102508.19
2022-09-20T07:46:57.921Z,102513.66
2022-09-20T07:49:26.174Z,102520.56
2022-09-20T07:51:53.618Z,102521.78
2022-09-20T07:54:20.841Z,102527.28
2022-09-20T07:56:48.069Z,102530.94
2022-09-20T07:59:15.249Z,102534.22
2022-09-20T08:01:42.468Z,102531.34
2022-09-20T08:04:10.197Z,102537.41
2022-09-20T08:06:42.604Z,102532.13
2022-09-20T08:09:11.298Z,102544.31
2022-09-20T08:11:40.797Z,102548.00
2022-09-20T08:14:09.148Z,102548.00
2022-09-20T08:16:41.112Z,102552.84
2022-09-20T08:19:08.652Z,102549.16
2022-09-20T08:21:37.921Z,102557.28
2022-09-20T08:24:04.616Z,102548.72
2022-09-20T08:26:31.612Z,102550.72
2022-09-20T08:28:59.654Z,102551.72
2022-09-20T08:31:28.201Z,102563.06
2022-09-20T08:33:54.776Z,102555.91
2022-09-20T08:36:26.060Z,102559.72
2022-09-20T08:41:51.262Z,102559.03
2022-09-20T08:44:35.146Z,102560.03
2022-09-20T08:47:14.159Z,102555.56
2022-09-20T08:49:45.757Z,102561.88
2022-09-20T08:52:19.373Z,102562.09
2022-09-20T08:54:46.728Z,102564.69
2022-09-20T08:57:17.306Z,102561.97
2022-09-20T08:59:44.681Z,102561.59
2022-09-20T09:02:17.501Z,102554.72
2022-09-20T09:04:45.239Z,102557.22
2022-09-20T09:07:15.010Z,102559.47
2022-09-20T09:09:46.552Z,102554.66
2022-09-20T09:12:29.248Z,102554.91
2022-09-20T09:15:02.477Z,102551.78
2022-09-20T09:17:30.315Z,102559.44
2022-09-20T09:19:59.695Z,102561.34
2022-09-20T09:22:40.031Z,102561.81
2022-09-20T09:25:22.523Z,102567.13
2022-09-20T09:27:58.353Z,102561.41
2022-09-20T09:30:31.316Z,102565.09
2022-09-20T09:33:19.717Z,102556.25
2022-09-20T09:36:15.277Z,102558.91
2022-09-20T09:38:47.609Z,102565.56
2022-09-20T09:41:32.931Z,102562.75
2022-09-20T09:44:09.618Z,102565.19
2022-09-20T09:46:38.488Z,102560.03
2022-09-20T09:49:18.213Z,102564.00
2022-09-20T09:52:15.381Z,102569.69
2022-09-20T09:54:51.761Z,102572.25
2022-09-20T09:57:43.107Z,102571.56
2022-09-20T10:00:20.651Z,102570.63
2022-09-20T10:03:31.989Z,102578.56
2022-09-20T10:06:43.745Z,102571.16
2022-09-20T10:09:36.569Z,102577.53
2022-09-20T10:12:17.707Z,102582.03
2022-09-20T10:15:21.221Z,102582.59
2022-09-20T10:18:07.287Z,102577.78
2022-09-20T10:21:07.811Z,102572.25
2022-09-20T10:24:03.173Z,102571.81
2022-09-20T10:26:50.998Z,102573.00
2022-09-20T10:29:27.500Z,102563.09
2022-09-20T10:32:17.420Z,102570.81
2022-09-20T10:35:21.288Z,102564.50
2022-09-20T10:37:54.942Z,102562.63
2022-09-20T10:40:53.660Z,102567.53
2022-09-20T10:43:36.660Z,102565.75
2022-09-20T10:46:31.946Z,102565.41
2022-09-20T10:49:28.827Z,102565.84
2022-09-20T10:52:16.899Z,102557.69
2022-09-20T10:55:13.201Z,102561.16
2022-09-20T10:58:30.468Z,102551.47
2022-09-20T11:01:36.936Z,102553.41
2022-09-20T11:04:32.325Z,102555.03
2022-09-20T11:07:17.458Z,102554.81
2022-09-20T11:09:51.879Z,102559.09
2022-09-20T11:12:27.451Z,102563.94
2022-09-20T11:15:26.213Z,102562.44
2022-09-20T11:18:11.087Z,102564.53
2022-09-20T11:20:44.197Z,102562.56
2022-09-20T11:23:17.117Z,102560.25
2022-09-20T11:25:51.644Z,102564.19
2022-09-20T11:28:38.886Z,102566.00
2022-09-20T11:31:18.026Z,102560.44
2022-09-20T11:33:52.276Z,102560.06
2022-09-20T11:36:34.237Z,102567.38
2022-09-20T11:39:05.188Z,102561.56
2022-09-20T11:41:32.180Z,102560.66
2022-09-20T11:44:07.747Z,102563.75
2022-09-20T11:46:40.401Z,102566.19
2022-09-20T11:49:15.758Z,102564.22
2022-09-20T11:52:13.078Z,102568.13
2022-09-20T11:54:57.740Z,102563.28
2022-09-20T11:57:24.877Z,102575.53
2022-09-20T12:00:03.314Z,102569.06
2022-09-20T12:02:45.111Z,102570.25
2022-09-20T12:05:30.420Z,102567.78
2022-09-20T12:07:59.700Z,102573.44
2022-09-20T12:10:34.652Z,102567.06
2022-09-20T12:13:05.587Z,102565.34
2022-09-20T12:15:40.113Z,102569.53
2022-09-20T12:18:09.376Z,102565.09
2022-09-20T12:20:36.173Z,102564.63
2022-09-20T12:23:40.274Z,102566.16
2022-09-20T12:26:18.713Z,102561.53
2022-09-20T12:28:50.478Z,102565.03
2022-09-20T12:31:25.882Z,102571.75
2022-09-20T12:33:59.140Z,102564.66
2022-09-20T12:36:28.571Z,102559.69
2022-09-20T12:39:02.270Z,102558.53
2022-09-20T12:41:46.304Z,102562.72
2022-09-20T12:44:50.018Z,102565.72
2022-09-20T12:47:22.596Z,102560.97
2022-09-20T12:50:07.413Z,102562.00
2022-09-20T12:52:58.777Z,102565.94
2022-09-20T12:55:45.461Z,102559.91
2022-09-20T12:58:13.391Z,102563.38
2022-09-20T13:00:59.279Z,102561.66
2022-09-20T13:03:29.159Z,102562.25
2022-09-20T13:06:05.530Z,102568.38
2022-09-20T13:08:42.886Z,102560.72
2022-09-20T13:11:20.105Z,102572.88
2022-09-20T13:13:50.503Z,102570.59
2022-09-20T13:16:37.192Z,102571.66
2022-09-20T13:19:09.663Z,102569.34
2022-09-20T13:21:42.268Z,102576.53
2022-09-20T13:24:16.218Z,102567.53
2022-09-20T13:26:46.089Z,102576.44
2022-09-20T13:29:35.276Z,102577.66
2022-09-20T13:32:26.237Z,102571.41
2022-09-20T13:35:21.517Z,102574.19
2022-09-20T13:37:50.622Z,102572.34
2022-09-20T13:40:24.033Z,102576.50
2022-09-20T13:43:12.895Z,102570.16
2022-09-20T13:45:42.523Z,102567.59
2022-09-20T13:48:09.356Z,102567.16
2022-09-20T13:50:40.049Z,102561.69
2022-09-20T13:53:33.542Z,102565.16
2022-09-20T13:56:14.067Z,102568.88
2022-09-20T13:58:40.844Z,102563.91
2022-09-20T14:01:40.027Z,102560.44
2022-09-20T14:04:21.286Z,102559.75
2022-09-20T14:06:49.192Z,102569.91
2022-09-20T14:09:38.877Z,102557.53
2022-09-20T14:12:06.516Z,102569.91
2022-09-20T14:14:35.037Z,102560.53
2022-09-20T14:17:05.451Z,102561.22
2022-09-20T14:19:37.279Z,102557.31
2022-09-20T14:22:05.197Z,102562.22
2022-09-20T14:24:37.161Z,102555.22
2022-09-20T14:27:17.118Z,102556.56
2022-09-20T14:29:49.265Z,102560.84
2022-09-20T14:32:18.330Z,102562.34
2022-09-20T14:34:46.556Z,102560.06
2022-09-20T14:37:27.272Z,102561.50
2022-09-20T14:39:56.546Z,102556.19
2022-09-20T14:42:28.655Z,102556.19
2022-09-20T14:44:55.305Z,102556.13
2022-09-20T14:47:54.245Z,102550.59
2022-09-20T14:50:23.771Z,102559.41
2022-09-20T14:53:13.380Z,102555.22
2022-09-20T14:55:54.527Z,102554.63
2022-09-20T14:58:20.989Z,102551.78
2022-09-20T15:00:51.659Z,102562.44
2022-09-20T15:03:25.666Z,102558.75
2022-09-20T15:05:52.162Z,102550.63
2022-09-20T15:08:20.494Z,102549.13
2022-09-20T15:10:47.761Z,102552.78
2022-09-20T15:13:14.780Z,102561.44
2022-09-20T15:15:42.106Z,102559.78
2022-09-20T15:18:26.642Z,102553.81
2022-09-20T15:20:55.032Z,102551.50
2022-09-20T15:23:21.914Z,102555.56
2022-09-20T15:25:51.303Z,102562.53
2022-09-20T15:28:18.668Z,102549.53
2022-09-20T15:30:47.232Z,102546.91
2022-09-20T15:33:14.537Z,102550.44
2022-09-20T15:35:42.392Z,102549.41
2022-09-20T15:38:11.613Z,102549.34
2022-09-20T15:40:49.119Z,102546.75
2022-09-20T15:43:21.481Z,102541.19
2022-09-20T15:46:00.619Z,102549.13
2022-09-20T15:48:29.893Z,102549.56
2022-09-20T15:51:11.302Z,102552.50
2022-09-20T15:53:38.733Z,102542.69
2022-09-20T15:56:15.468Z,102544.72
2022-09-20T15:58:48.494Z,102548.44
2022-09-20T16:01:19.494Z,102551.88
2022-09-20T16:03:46.595Z,102555.78
2022-09-20T16:06:13.713Z,102552.84
2022-09-20T16:08:42.507Z,102554.78
2022-09-20T16:11:13.319Z,102560.06
2022-09-20T16:43:41.294Z,102579.97
2022-09-20T16:46:08.143Z,102585.47
2022-09-20T16:54:59.907Z,102590.81
2022-09-20T16:57:26.430Z,102591.91
2022-09-20T16:59:55.686Z,102595.25
2022-09-20T17:02:22.185Z,102591.88
2022-09-20T17:04:48.746Z,102596.28
2022-09-20T17:07:15.251Z,102600.69
2022-09-20T17:09:41.661Z,102602.63
2022-09-20T17:12:10.005Z,102602.09
2022-09-20T17:14:37.082Z,102602.38
2022-09-20T17:17:03.699Z,102598.16
2022-09-20T17:19:30.319Z,102602.13
2022-09-20T17:21:56.723Z,102606.06
2022-09-20T17:24:23.728Z,102601.84
2022-09-20T17:26:51.021Z,102611.88
2022-09-20T17:29:18.666Z,102609.97
2022-09-20T17:31:53.238Z,102615.50
2022-09-20T17:34:21.612Z,102619.22
2022-09-20T17:36:49.053Z,102619.25
2022-09-20T17:39:16.675Z,102625.03
2022-09-20T17:41:48.127Z,102623.44
2022-09-20T17:44:15.658Z,102629.59
2022-09-20T17:46:44.815Z,102622.47
2022-09-20T17:49:13.686Z,102629.63
2022-09-20T17:51:44.146Z,102630.50
2022-09-20T17:54:14.946Z,102629.09
2022-09-20T17:56:47.346Z,102631.59
2022-09-20T17:59:18.050Z,102629.97
2022-09-20T18:01:47.292Z,102636.09
2022-09-20T18:04:14.325Z,102635.69
2022-09-20T18:06:45.617Z,102633.47
2022-09-20T18:09:15.448Z,102639.78
2022-09-20T18:11:46.423Z,102649.34
2022-09-20T18:14:13.691Z,102648.31
2022-09-20T18:16:40.952Z,102645.28
2022-09-20T18:19:08.679Z,102647.31
2022-09-20T18:21:36.947Z,102653.81
2022-09-20T18:24:07.973Z,102652.84
2022-09-20T18:26:37.531Z,102656.28
2022-09-20T18:29:12.142Z,102654.25
2022-09-20T18:31:45.344Z,102662.19
2022-09-20T18:34:17.683Z,102670.09
2022-09-20T18:36:53.475Z,102670.31
2022-09-20T18:39:24.006Z,102668.28
2022-09-20T18:41:56.243Z,102676.00
2022-09-20T18:44:23.637Z,102676.19
2022-09-20T18:46:53.446Z,102678.81
2022-09-20T18:49:22.708Z,102682.69
2022-09-20T18:51:57.364Z,102683.47
2022-09-20T18:54:24.005Z,102683.09
2022-09-20T18:56:51.394Z,102682.06
2022-09-20T18:59:26.768Z,102675.16
2022-09-20T19:02:32.887Z,102686.50
2022-09-20T19:05:20.638Z,102691.16
2022-09-20T19:08:24.185Z,102689.53
2022-09-20T19:10:58.633Z,102694.59
2022-09-20T19:13:48.914Z,102694.56
2022-09-20T19:16:31.162Z,102700.44
2022-09-20T19:19:15.964Z,102706.94
2022-09-20T19:22:31.124Z,102704.06
2022-09-20T19:25:12.465Z,102707.34
2022-09-20T19:27:39.277Z,102703.69
2022-09-20T19:30:06.472Z,102710.19
2022-09-20T19:32:34.583Z,102711.63
2022-09-20T19:35:01.733Z,102716.91
2022-09-20T19:37:41.914Z,102717.53
2022-09-20T19:40:35.603Z,102721.22
2022-09-20T19:43:16.301Z,102719.19
2022-09-20T19:45:52.266Z,102723.25
2022-09-20T19:48:26.828Z,102720.41
2022-09-20T19:50:53.806Z,102734.44
2022-09-20T19:53:24.192Z,102734.44
2022-09-20T19:55:59.417Z,102737.06
2022-09-20T19:58:26.059Z,102731.78
2022-09-20T20:00:53.402Z,102737.88
2022-09-20T20:03:23.639Z,102735.66
2022-09-20T20:06:07.944Z,102737.09
2022-09-20T20:08:45.789Z,102737.09
2022-09-20T20:11:18.194Z,102746.44
2022-09-20T20:14:16.069Z,102747.47
2022-09-20T20:16:54.660Z,102750.72
2022-09-20T20:19:37.712Z,102739.97
2022-09-20T20:22:41.885Z,102746.88
2022-09-20T20:25:34.504Z,102756.63
2022-09-20T20:28:01.092Z,102750.53
2022-09-20T20:30:27.568Z,102743.81
2022-09-20T20:33:00.575Z,102751.13
2022-09-20T20:35:27.067Z,102748.06
2022-09-20T20:37:53.779Z,102747.03
2022-09-20T20:40:20.483Z,102744.41
2022-09-20T20:42:47.884Z,102758.03
2022-09-20T20:45:14.436Z,102760.25
2022-09-20T20:47:42.580Z,102763.91
2022-09-20T20:50:11.904Z,102755.59
2022-09-20T20:52:38.636Z,102758.22
2022-09-20T20:55:06.457Z,102760.88
2022-09-20T20:57:34.216Z,102770.59
2022-09-20T21:00:00.762Z,102767.56
2022-09-20T21:02:27.372Z,102770.00
2022-09-20T21:04:53.884Z,102770.81
2022-09-20T21:07:20.352Z,102775.88
2022-09-20T21:09:46.868Z,102778.34
2022-09-20T21:12:14.585Z,102779.34
2022-09-20T21:14:41.057Z,102777.91
2022-09-20T21:17:07.833Z,102778.91
2022-09-20T21:19:34.338Z,102785.84
2022-09-20T21:22:00.871Z,102781.38
2022-09-20T21:24:27.407Z,102789.91
2022-09-20T21:26:53.860Z,102793.56
2022-09-20T21:29:20.833Z,102789.47
2022-09-20T21:31:47.421Z,102793.34
2022-09-20T21:34:15.625Z,102788.44
2022-09-20T21:36:43.953Z,102791.91
2022-09-20T21:39:11.278Z,102793.53
2022-09-20T21:41:39.481Z,102793.34
2022-09-20T21:44:07.689Z,102794.34
2022-09-20T21:46:42.024Z,102791.69
2022-09-20T21:49:10.993Z,102795.53
2022-09-20T21:51:38.833Z,102802.03
2022-09-20T21:54:05.776Z,102797.13
2022-09-20T21:56:34.793Z,102799.97
2022-09-20T21:59:03.791Z,102803.84
2022-09-20T22:01:36.307Z,102794.91
2022-09-20T22:04:11.493Z,102797.34
2022-09-20T22:06:42.763Z,102796.72
2022-09-20T22:09:11.655Z,102801.19
2022-09-20T22:11:43.546Z,102797.91
2022-09-20T22:14:11.667Z,102798.31
2022-09-20T22:16:40.235Z,102792.41
2022-09-20T22:19:08.861Z,102802.72
2022-09-20T22:21:38.305Z,102796.84
2022-09-20T22:24:07.911Z,102803.16
2022-09-20T22:26:37.180Z,102796.03
2022-09-20T22:29:05.112Z,102795.63
2022-09-20T22:31:33.578Z,102796.19
2022-09-20T22:34:02.306Z,102798.22
2022-09-20T22:36:34.522Z,102792.50
2022-09-20T22:39:01.665Z,102792.50
2022-09-20T22:41:28.793Z,102793.69
2022-09-20T22:43:55.581Z,102798.97
2022-09-20T22:46:24.774Z,102797.34
2022-09-20T22:48:51.494Z,102794.44
2022-09-20T22:51:20.716Z,102792.38
2022-09-20T22:53:48.568Z,102794.38
2022-09-20T22:56:18.770Z,102800.03
2022-09-20T22:58:48.729Z,102794.75
2022-09-20T23:01:29.321Z,102795.31
2022-09-20T23:04:03.271Z,102797.91
2022-09-20T23:06:36.215Z,102797.22
2022-09-20T23:09:04.903Z,102796.97
2022-09-20T23:11:31.605Z,102809.13
2022-09-20T23:14:01.518Z,102807.88
2022-09-20T23:16:30.816Z,102807.81
2022-09-20T23:18:59.183Z,102803.28
2022-09-20T23:21:26.548Z,102807.47
2022-09-20T23:23:55.240Z,102809.03
2022-09-20T23:26:23.372Z,102809.38
2022-09-20T23:29:01.407Z,102810.94
2022-09-20T23:31:29.018Z,102811.69
2022-09-20T23:33:58.822Z,102814.06
2022-09-20T23:36:28.432Z,102820.06
2022-09-20T23:38:57.034Z,102812.28
2022-09-20T23:41:26.201Z,102806.94
2022-09-20T23:43:53.419Z,102806.69
2022-09-20T23:46:21.870Z,102807.22
2022-09-20T23:48:50.308Z,102805.78
2022-09-20T23:51:19.907Z,102817.13
2022-09-20T23:53:46.792Z,102812.59
2022-09-20T23:56:14.518Z,102815.53
2022-09-20T23:58:43.165Z,102811.16
